sensor_id;sensor_type;location;lat;lon;timestamp;pressure;altitude;pressure_sealevel;temperature;humidity
15529;BME280;7866;52.280;9.500;2023-04-06T00:03:14;100681.19;;;2.24;66.47
15529;BME280;7866;52.280;9.500;2023-04-06T00:08:16;100687.09;;;2.27;65.26
15529;BME280;7866;52.280;9.500;2023-04-06T00:13:18;100678.31;;;2.27;65.63
15529;BME280;7866;52.280;9.500;2023-04-06T00:18:21;100673.34;;;2.35;65.20
15529;BME280;7866;52.280;9.500;2023-04-06T00:23:23;100670.31;;;2.28;64.91
15529;BME280;7866;52.280;9.500;2023-04-06T00:28:25;100673.16;;;2.25;65.22
15529;BME280;7866;52.280;9.500;2023-04-06T00:33:28;100669.53;;;2.26;65.17
15529;BME280;7866;52.280;9.500;2023-04-06T00:38:30;100668.50;;;2.29;65.66
15529;BME280;7866;52.280;9.500;2023-04-06T00:48:36;100657.72;;;2.32;64.67
15529;BME280;7866;52.280;9.500;2023-04-06T00:53:38;100656.47;;;2.25;64.89
15529;BME280;7866;52.280;9.500;2023-04-06T00:58:40;100646.84;;;2.24;64.69
15529;BME280;7866;52.280;9.500;2023-04-06T01:03:43;100639.97;;;2.21;65.36
15529;BME280;7866;52.280;9.500;2023-04-06T01:08:49;100641.03;;;2.18;65.08
15529;BME280;7866;52.280;9.500;2023-04-06T01:13:50;100630.66;;;2.15;65.63
15529;BME280;7866;52.280;9.500;2023-04-06T01:18:53;100631.72;;;2.26;65.20
15529;BME280;7866;52.280;9.500;2023-04-06T01:23:57;100618.88;;;2.08;65.11
15529;BME280;7866;52.280;9.500;2023-04-06T01:28:59;100623.59;;;2.03;65.48
15529;BME280;7866;52.280;9.500;2023-04-06T01:34:01;100629.75;;;2.04;66.04
15529;BME280;7866;52.280;9.500;2023-04-06T01:39:04;100618.66;;;1.98;65.52
15529;BME280;7866;52.280;9.500;2023-04-06T01:44:05;100621.41;;;1.97;65.97
15529;BME280;7866;52.280;9.500;2023-04-06T01:49:07;100616.34;;;1.81;65.70
15529;BME280;7866;52.280;9.500;2023-04-06T01:54:10;100618.34;;;1.78;66.27
15529;BME280;7866;52.280;9.500;2023-04-06T01:59:12;100609.69;;;1.76;66.54
15529;BME280;7866;52.280;9.500;2023-04-06T02:04:14;100602.63;;;1.76;67.14
15529;BME280;7866;52.280;9.500;2023-04-06T02:09:17;100607.47;;;1.82;66.66
15529;BME280;7866;52.280;9.500;2023-04-06T02:14:18;100605.56;;;1.71;66.86
15529;BME280;7866;52.280;9.500;2023-04-06T02:19:20;100602.94;;;1.84;66.01
15529;BME280;7866;52.280;9.500;2023-04-06T02:24:24;100600.94;;;1.88;66.58
15529;BME280;7866;52.280;9.500;2023-04-06T02:29:25;100592.84;;;2.15;64.84
15529;BME280;7866;52.280;9.500;2023-04-06T02:34:27;100591.16;;;2.14;64.30
15529;BME280;7866;52.280;9.500;2023-04-06T02:39:31;100576.97;;;2.15;64.10
15529;BME280;7866;52.280;9.500;2023-04-06T02:44:33;100584.41;;;2.10;64.84
15529;BME280;7866;52.280;9.500;2023-04-06T02:49:34;100579.63;;;2.28;63.47
15529;BME280;7866;52.280;9.500;2023-04-06T02:54:37;100572.03;;;2.10;64.20
15529;BME280;7866;52.280;9.500;2023-04-06T02:59:39;100567.41;;;2.01;64.97
15529;BME280;7866;52.280;9.500;2023-04-06T03:04:41;100574.06;;;1.94;64.31
15529;BME280;7866;52.280;9.500;2023-04-06T03:09:44;100572.09;;;1.85;64.38
15529;BME280;7866;52.280;9.500;2023-04-06T03:14:46;100573.78;;;1.86;65.14
15529;BME280;7866;52.280;9.500;2023-04-06T03:19:48;100561.13;;;2.15;64.73
15529;BME280;7866;52.280;9.500;2023-04-06T03:24:51;100559.19;;;2.30;62.88
15529;BME280;7866;52.280;9.500;2023-04-06T03:29:53;100562.25;;;2.60;61.80
15529;BME280;7866;52.280;9.500;2023-04-06T03:34:54;100563.84;;;2.26;62.47
15529;BME280;7866;52.280;9.500;2023-04-06T03:39:57;100564.53;;;2.17;62.79
15529;BME280;7866;52.280;9.500;2023-04-06T03:44:59;100553.84;;;2.18;63.42
15529;BME280;7866;52.280;9.500;2023-04-06T03:50:01;100564.69;;;2.27;62.77
15529;BME280;7866;52.280;9.500;2023-04-06T03:55:06;100565.34;;;2.54;61.73
15529;BME280;7866;52.280;9.500;2023-04-06T04:00:09;100563.47;;;2.07;62.41
15529;BME280;7866;52.280;9.500;2023-04-06T04:05:11;100574.03;;;2.07;63.32
15529;BME280;7866;52.280;9.500;2023-04-06T04:10:14;100565.97;;;1.84;63.81
15529;BME280;7866;52.280;9.500;2023-04-06T04:15:16;100569.66;;;1.69;64.28
15529;BME280;7866;52.280;9.500;2023-04-06T04:20:18;100572.00;;;1.48;65.88
15529;BME280;7866;52.280;9.500;2023-04-06T04:25:21;100577.69;;;1.29;65.68
15529;BME280;7866;52.280;9.500;2023-04-06T04:30:22;100578.72;;;1.27;66.35
15529;BME280;7866;52.280;9.500;2023-04-06T04:35:24;100577.44;;;1.19;66.78
15529;BME280;7866;52.280;9.500;2023-04-06T04:40:27;100576.19;;;1.12;67.07
15529;BME280;7866;52.280;9.500;2023-04-06T04:45:29;100579.03;;;1.09;68.20
15529;BME280;7866;52.280;9.500;2023-04-06T04:50:30;100574.19;;;1.16;67.60
15529;BME280;7866;52.280;9.500;2023-04-06T04:55:33;100575.44;;;1.10;68.12
15529;BME280;7866;52.280;9.500;2023-04-06T05:00:35;100566.38;;;1.14;67.44
15529;BME280;7866;52.280;9.500;2023-04-06T05:05:37;100568.47;;;1.09;67.72
15529;BME280;7866;52.280;9.500;2023-04-06T05:10:40;100569.00;;;1.14;67.09
15529;BME280;7866;52.280;9.500;2023-04-06T05:15:42;100570.28;;;1.21;67.71
15529;BME280;7866;52.280;9.500;2023-04-06T05:20:43;100561.75;;;1.43;68.12
15529;BME280;7866;52.280;9.500;2023-04-06T05:25:46;100554.16;;;2.14;66.13
15529;BME280;7866;52.280;9.500;2023-04-06T05:30:48;100560.09;;;2.41;63.90
15529;BME280;7866;52.280;9.500;2023-04-06T05:35:50;100553.41;;;2.96;61.58
15529;BME280;7866;52.280;9.500;2023-04-06T05:40:53;100549.28;;;3.50;58.26
15529;BME280;7866;52.280;9.500;2023-04-06T05:45:55;100549.09;;;3.76;57.03
15529;BME280;7866;52.280;9.500;2023-04-06T05:50:56;100554.81;;;4.14;55.18
15529;BME280;7866;52.280;9.500;2023-04-06T05:56:02;100550.25;;;4.28;55.42
15529;BME280;7866;52.280;9.500;2023-04-06T06:01:04;100555.38;;;4.52;55.21
15529;BME280;7866;52.280;9.500;2023-04-06T06:06:05;100555.63;;;4.81;53.50
15529;BME280;7866;52.280;9.500;2023-04-06T06:11:09;100555.34;;;4.95;53.12
15529;BME280;7866;52.280;9.500;2023-04-06T06:16:10;100555.53;;;5.24;53.49
15529;BME280;7866;52.280;9.500;2023-04-06T06:21:12;100547.91;;;5.61;51.96
15529;BME280;7866;52.280;9.500;2023-04-06T06:26:15;100549.03;;;6.10;50.81
15529;BME280;7866;52.280;9.500;2023-04-06T06:31:17;100550.50;;;6.53;50.30
15529;BME280;7866;52.280;9.500;2023-04-06T06:36:20;100554.03;;;6.93;49.69
15529;BME280;7866;52.280;9.500;2023-04-06T06:41:23;100551.19;;;7.13;48.35
15529;BME280;7866;52.280;9.500;2023-04-06T06:46:26;100557.94;;;7.27;48.92
15529;BME280;7866;52.280;9.500;2023-04-06T06:51:28;100555.59;;;7.61;48.03
15529;BME280;7866;52.280;9.500;2023-04-06T06:56:31;100551.25;;;7.60;47.34
15529;BME280;7866;52.280;9.500;2023-04-06T07:01:33;100553.88;;;7.80;47.32
15529;BME280;7866;52.280;9.500;2023-04-06T07:06:35;100557.75;;;7.95;47.35
15529;BME280;7866;52.280;9.500;2023-04-06T07:11:38;100556.13;;;8.12;45.96
15529;BME280;7866;52.280;9.500;2023-04-06T07:16:40;100549.13;;;8.29;46.96
15529;BME280;7866;52.280;9.500;2023-04-06T07:21:42;100547.81;;;8.15;45.77
15529;BME280;7866;52.280;9.500;2023-04-06T07:26:45;100542.50;;;8.33;43.58
15529;BME280;7866;52.280;9.500;2023-04-06T07:31:46;100545.47;;;8.39;44.73
15529;BME280;7866;52.280;9.500;2023-04-06T07:36:49;100549.22;;;8.64;45.37
15529;BME280;7866;52.280;9.500;2023-04-06T07:41:54;100544.66;;;8.75;44.98
15529;BME280;7866;52.280;9.500;2023-04-06T07:46:56;100537.41;;;8.85;44.66
15529;BME280;7866;52.280;9.500;2023-04-06T07:51:57;100548.78;;;8.87;45.54
15529;BME280;7866;52.280;9.500;2023-04-06T07:57:01;100542.81;;;8.93;44.49
15529;BME280;7866;52.280;9.500;2023-04-06T08:02:02;100540.03;;;9.21;43.75
15529;BME280;7866;52.280;9.500;2023-04-06T08:07:04;100549.72;;;9.66;42.84
15529;BME280;7866;52.280;9.500;2023-04-06T08:12:07;100558.44;;;9.24;44.13
15529;BME280;7866;52.280;9.500;2023-04-06T08:17:09;100548.81;;;9.57;43.81
15529;BME280;7866;52.280;9.500;2023-04-06T08:22:11;100545.16;;;9.92;43.30
15529;BME280;7866;52.280;9.500;2023-04-06T08:27:14;100545.25;;;9.74;42.69
15529;BME280;7866;52.280;9.500;2023-04-06T08:32:16;100542.06;;;9.71;43.32
15529;BME280;7866;52.280;9.500;2023-04-06T08:37:18;100533.81;;;9.90;43.07
15529;BME280;7866;52.280;9.500;2023-04-06T08:42:21;100547.19;;;9.90;43.14
15529;BME280;7866;52.280;9.500;2023-04-06T08:47:23;100544.16;;;9.93;43.30
15529;BME280;7866;52.280;9.500;2023-04-06T08:52:25;100550.13;;;9.79;43.31
15529;BME280;7866;52.280;9.500;2023-04-06T08:57:30;100544.88;;;10.03;42.44
15529;BME280;7866;52.280;9.500;2023-04-06T09:02:33;100539.28;;;10.23;42.82
15529;BME280;7866;52.280;9.500;2023-04-06T09:07:35;100540.50;;;9.94;42.71
15529;BME280;7866;52.280;9.500;2023-04-06T09:12:38;100540.28;;;10.22;42.68
15529;BME280;7866;52.280;9.500;2023-04-06T09:17:43;100534.34;;;10.44;41.54
15529;BME280;7866;52.280;9.500;2023-04-06T09:22:46;100536.06;;;10.45;42.35
15529;BME280;7866;52.280;9.500;2023-04-06T09:27:58;100527.06;;;10.87;40.06
15529;BME280;7866;52.280;9.500;2023-04-06T09:33:00;100530.44;;;10.97;41.51
15529;BME280;7866;52.280;9.500;2023-04-06T09:38:10;100528.59;;;11.14;40.58
15529;BME280;7866;52.280;9.500;2023-04-06T09:43:23;100522.88;;;11.25;39.57
15529;BME280;7866;52.280;9.500;2023-04-06T09:48:25;100525.34;;;11.43;36.40
15529;BME280;7866;52.280;9.500;2023-04-06T09:53:28;100520.81;;;11.52;39.60
15529;BME280;7866;52.280;9.500;2023-04-06T09:58:36;100516.75;;;11.64;39.50
15529;BME280;7866;52.280;9.500;2023-04-06T10:03:45;100515.88;;;11.88;37.83
15529;BME280;7866;52.280;9.500;2023-04-06T10:08:50;100516.91;;;11.71;39.75
15529;BME280;7866;52.280;9.500;2023-04-06T10:13:56;100509.06;;;11.69;39.88
15529;BME280;7866;52.280;9.500;2023-04-06T10:19:11;100513.06;;;11.73;36.69
15529;BME280;7866;52.280;9.500;2023-04-06T10:24:14;100510.41;;;12.13;40.68
15529;BME280;7866;52.280;9.500;2023-04-06T10:29:20;100507.75;;;12.67;38.14
15529;BME280;7866;52.280;9.500;2023-04-06T10:34:22;100522.50;;;12.71;39.38
15529;BME280;7866;52.280;9.500;2023-04-06T10:39:24;100509.72;;;12.19;39.48
15529;BME280;7866;52.280;9.500;2023-04-06T10:44:29;100504.00;;;12.53;39.37
15529;BME280;7866;52.280;9.500;2023-04-06T10:49:30;100501.09;;;13.00;37.85
15529;BME280;7866;52.280;9.500;2023-04-06T10:54:32;100509.91;;;12.94;37.84
15529;BME280;7866;52.280;9.500;2023-04-06T10:59:35;100504.59;;;12.63;35.77
15529;BME280;7866;52.280;9.500;2023-04-06T11:04:37;100509.63;;;12.89;38.22
15529;BME280;7866;52.280;9.500;2023-04-06T11:09:39;100493.50;;;12.89;37.70
15529;BME280;7866;52.280;9.500;2023-04-06T11:14:52;100491.00;;;13.02;37.72
15529;BME280;7866;52.280;9.500;2023-04-06T11:19:54;100489.22;;;12.95;38.14
15529;BME280;7866;52.280;9.500;2023-04-06T11:25:05;100482.59;;;13.05;36.67
15529;BME280;7866;52.280;9.500;2023-04-06T11:30:10;100482.56;;;13.43;37.75
15529;BME280;7866;52.280;9.500;2023-04-06T11:35:13;100473.38;;;13.23;37.29
15529;BME280;7866;52.280;9.500;2023-04-06T11:40:21;100478.22;;;13.04;37.83
15529;BME280;7866;52.280;9.500;2023-04-06T11:45:25;100454.84;;;13.43;36.04
15529;BME280;7866;52.280;9.500;2023-04-06T11:50:32;100454.75;;;13.51;35.77
15529;BME280;7866;52.280;9.500;2023-04-06T11:55:37;100451.97;;;13.74;37.07
15529;BME280;7866;52.280;9.500;2023-04-06T12:00:43;100448.75;;;14.00;37.37
15529;BME280;7866;52.280;9.500;2023-04-06T12:05:45;100434.13;;;14.24;36.87
15529;BME280;7866;52.280;9.500;2023-04-06T12:10:47;100421.94;;;14.28;36.52
15529;BME280;7866;52.280;9.500;2023-04-06T12:15:50;100434.22;;;14.16;36.83
15529;BME280;7866;52.280;9.500;2023-04-06T12:20:52;100422.06;;;14.20;37.46
15529;BME280;7866;52.280;9.500;2023-04-06T12:25:53;100423.69;;;13.99;37.59
15529;BME280;7866;52.280;9.500;2023-04-06T12:30:57;100425.63;;;14.63;36.81
15529;BME280;7866;52.280;9.500;2023-04-06T12:35:59;100425.59;;;14.57;36.28
15529;BME280;7866;52.280;9.500;2023-04-06T12:41:00;100422.00;;;14.35;37.25
15529;BME280;7866;52.280;9.500;2023-04-06T12:46:04;100402.69;;;14.10;35.95
15529;BME280;7866;52.280;9.500;2023-04-06T12:51:06;100412.50;;;14.53;35.40
15529;BME280;7866;52.280;9.500;2023-04-06T12:56:12;100398.22;;;14.38;35.84
15529;BME280;7866;52.280;9.500;2023-04-06T13:01:15;100387.28;;;14.89;35.98
15529;BME280;7866;52.280;9.500;2023-04-06T13:06:17;100388.34;;;14.67;34.96
15529;BME280;7866;52.280;9.500;2023-04-06T13:11:19;100404.28;;;14.90;35.17
15529;BME280;7866;52.280;9.500;2023-04-06T13:16:25;100384.94;;;15.90;34.96
15529;BME280;7866;52.280;9.500;2023-04-06T13:21:27;100387.44;;;15.50;34.43
15529;BME280;7866;52.280;9.500;2023-04-06T13:26:29;100376.34;;;15.67;34.54
15529;BME280;7866;52.280;9.500;2023-04-06T13:31:32;100375.97;;;15.76;34.09
15529;BME280;7866;52.280;9.500;2023-04-06T13:36:33;100367.09;;;15.48;34.58
15529;BME280;7866;52.280;9.500;2023-04-06T13:41:35;100371.97;;;15.24;34.03
15529;BME280;7866;52.280;9.500;2023-04-06T13:46:38;100377.53;;;15.23;34.29
15529;BME280;7866;52.280;9.500;2023-04-06T13:51:40;100359.41;;;15.45;33.60
15529;BME280;7866;52.280;9.500;2023-04-06T13:56:42;100358.47;;;15.66;33.42
15529;BME280;7866;52.280;9.500;2023-04-06T14:01:45;100355.53;;;15.61;33.79
15529;BME280;7866;52.280;9.500;2023-04-06T14:06:47;100354.28;;;15.57;33.26
15529;BME280;7866;52.280;9.500;2023-04-06T14:11:49;100357.97;;;15.56;33.90
15529;BME280;7866;52.280;9.500;2023-04-06T14:16:52;100360.19;;;15.87;32.85
15529;BME280;7866;52.280;9.500;2023-04-06T14:21:54;100360.09;;;15.60;33.05
15529;BME280;7866;52.280;9.500;2023-04-06T14:26:56;100355.78;;;15.66;32.94
15529;BME280;7866;52.280;9.500;2023-04-06T14:31:59;100353.28;;;15.71;32.23
15529;BME280;7866;52.280;9.500;2023-04-06T14:37:01;100343.75;;;15.75;32.09
15529;BME280;7866;52.280;9.500;2023-04-06T14:42:03;100349.88;;;16.23;33.10
15529;BME280;7866;52.280;9.500;2023-04-06T14:47:06;100340.94;;;15.96;32.33
15529;BME280;7866;52.280;9.500;2023-04-06T14:52:09;100342.13;;;15.81;32.42
15529;BME280;7866;52.280;9.500;2023-04-06T14:57:11;100336.06;;;15.65;32.51
15529;BME280;7866;52.280;9.500;2023-04-06T15:02:14;100345.91;;;15.45;31.26
15529;BME280;7866;52.280;9.500;2023-04-06T15:07:16;100324.25;;;15.73;32.56
15529;BME280;7866;52.280;9.500;2023-04-06T15:12:17;100326.34;;;15.91;31.98
15529;BME280;7866;52.280;9.500;2023-04-06T15:17:20;100324.97;;;15.53;32.03
15529;BME280;7866;52.280;9.500;2023-04-06T15:22:22;100315.59;;;15.49;32.10
15529;BME280;7866;52.280;9.500;2023-04-06T15:27:24;100323.41;;;15.72;32.70
15529;BME280;7866;52.280;9.500;2023-04-06T15:32:27;100312.13;;;15.14;32.84
15529;BME280;7866;52.280;9.500;2023-04-06T15:37:28;100319.34;;;15.07;32.71
15529;BME280;7866;52.280;9.500;2023-04-06T15:42:30;100324.75;;;14.72;33.10
15529;BME280;7866;52.280;9.500;2023-04-06T15:47:33;100302.91;;;14.67;33.71
15529;BME280;7866;52.280;9.500;2023-04-06T15:52:35;100308.34;;;14.74;34.43
15529;BME280;7866;52.280;9.500;2023-04-06T15:57:37;100308.72;;;14.43;33.68
15529;BME280;7866;52.280;9.500;2023-04-06T16:02:40;100308.13;;;14.47;34.35
15529;BME280;7866;52.280;9.500;2023-04-06T16:07:42;100308.38;;;14.24;34.58
15529;BME280;7866;52.280;9.500;2023-04-06T16:12:43;100303.06;;;14.10;34.83
15529;BME280;7866;52.280;9.500;2023-04-06T16:17:46;100309.03;;;14.05;34.57
15529;BME280;7866;52.280;9.500;2023-04-06T16:22:48;100304.13;;;13.94;35.06
15529;BME280;7866;52.280;9.500;2023-04-06T16:27:50;100304.25;;;13.86;35.24
15529;BME280;7866;52.280;9.500;2023-04-06T16:32:53;100302.91;;;13.75;35.50
15529;BME280;7866;52.280;9.500;2023-04-06T16:37:55;100302.22;;;13.51;35.31
15529;BME280;7866;52.280;9.500;2023-04-06T16:42:56;100294.25;;;13.43;35.63
15529;BME280;7866;52.280;9.500;2023-04-06T16:48:00;100293.34;;;13.21;36.32
15529;BME280;7866;52.280;9.500;2023-04-06T16:53:01;100292.06;;;13.02;37.00
15529;BME280;7866;52.280;9.500;2023-04-06T16:58:03;100295.56;;;12.88;37.17
15529;BME280;7866;52.280;9.500;2023-04-06T17:03:06;100291.91;;;12.37;39.07
15529;BME280;7866;52.280;9.500;2023-04-06T17:08:07;100297.06;;;12.00;40.25
15529;BME280;7866;52.280;9.500;2023-04-06T17:13:09;100301.03;;;11.58;42.14
15529;BME280;7866;52.280;9.500;2023-04-06T17:18:12;100300.19;;;11.27;42.80
15529;BME280;7866;52.280;9.500;2023-04-06T17:23:14;100295.09;;;10.93;43.80
15529;BME280;7866;52.280;9.500;2023-04-06T17:28:16;100293.03;;;10.64;45.02
15529;BME280;7866;52.280;9.500;2023-04-06T17:33:19;100303.78;;;10.39;46.05
15529;BME280;7866;52.280;9.500;2023-04-06T17:38:21;100299.41;;;10.22;46.30
15529;BME280;7866;52.280;9.500;2023-04-06T17:43:23;100317.78;;;9.92;47.25
15529;BME280;7866;52.280;9.500;2023-04-06T17:48:26;100311.75;;;9.74;47.59
15529;BME280;7866;52.280;9.500;2023-04-06T17:53:29;100310.00;;;9.48;48.03
15529;BME280;7866;52.280;9.500;2023-04-06T17:58:32;100303.81;;;9.40;47.92
15529;BME280;7866;52.280;9.500;2023-04-06T18:03:36;100315.59;;;9.21;48.17
15529;BME280;7866;52.280;9.500;2023-04-06T18:08:37;100323.50;;;8.96;48.85
15529;BME280;7866;52.280;9.500;2023-04-06T18:13:39;100319.25;;;8.85;49.00
15529;BME280;7866;52.280;9.500;2023-04-06T18:18:42;100324.53;;;8.77;49.05
15529;BME280;7866;52.280;9.500;2023-04-06T18:23:44;100331.56;;;8.52;50.06
15529;BME280;7866;52.280;9.500;2023-04-06T18:28:46;100331.44;;;8.54;49.71
15529;BME280;7866;52.280;9.500;2023-04-06T18:33:49;100333.97;;;8.63;49.24
15529;BME280;7866;52.280;9.500;2023-04-06T18:38:51;100334.19;;;8.44;49.78
15529;BME280;7866;52.280;9.500;2023-04-06T18:43:52;100340.88;;;8.48;49.58
15529;BME280;7866;52.280;9.500;2023-04-06T18:48:55;100337.06;;;8.33;50.08
15529;BME280;7866;52.280;9.500;2023-04-06T18:53:58;100343.91;;;8.18;50.66
15529;BME280;7866;52.280;9.500;2023-04-06T18:59:00;100348.66;;;8.24;50.07
15529;BME280;7866;52.280;9.500;2023-04-06T19:04:03;100354.59;;;8.18;50.49
15529;BME280;7866;52.280;9.500;2023-04-06T19:09:05;100358.78;;;8.20;50.72
15529;BME280;7866;52.280;9.500;2023-04-06T19:14:07;100357.94;;;8.02;51.03
15529;BME280;7866;52.280;9.500;2023-04-06T19:19:10;100361.47;;;8.02;51.29
15529;BME280;7866;52.280;9.500;2023-04-06T19:24:11;100366.41;;;7.97;51.05
15529;BME280;7866;52.280;9.500;2023-04-06T19:29:13;100365.66;;;7.87;51.58
15529;BME280;7866;52.280;9.500;2023-04-06T19:34:16;100357.66;;;7.87;51.83
15529;BME280;7866;52.280;9.500;2023-04-06T19:39:18;100355.28;;;7.84;51.50
15529;BME280;7866;52.280;9.500;2023-04-06T19:44:19;100361.06;;;7.79;51.58
15529;BME280;7866;52.280;9.500;2023-04-06T19:49:22;100362.81;;;7.71;52.00
15529;BME280;7866;52.280;9.500;2023-04-06T19:54:27;100357.09;;;7.65;52.11
15529;BME280;7866;52.280;9.500;2023-04-06T19:59:29;100356.44;;;7.54;52.59
15529;BME280;7866;52.280;9.500;2023-04-06T20:04:32;100360.28;;;7.51;52.46
15529;BME280;7866;52.280;9.500;2023-04-06T20:09:33;100362.09;;;7.51;52.85
15529;BME280;7866;52.280;9.500;2023-04-06T20:14:35;100355.06;;;7.50;52.98
15529;BME280;7866;52.280;9.500;2023-04-06T20:19:38;100351.19;;;7.44;53.74
15529;BME280;7866;52.280;9.500;2023-04-06T20:24:40;100344.94;;;7.53;52.78
15529;BME280;7866;52.280;9.500;2023-04-06T20:29:42;100359.81;;;7.56;52.91
15529;BME280;7866;52.280;9.500;2023-04-06T20:34:45;100354.75;;;7.62;52.46
15529;BME280;7866;52.280;9.500;2023-04-06T20:39:47;100353.34;;;7.58;52.94
15529;BME280;7866;52.280;9.500;2023-04-06T20:44:49;100350.09;;;7.64;52.79
15529;BME280;7866;52.280;9.500;2023-04-06T20:49:52;100344.50;;;7.58;53.06
15529;BME280;7866;52.280;9.500;2023-04-06T20:54:54;100349.00;;;7.57;52.56
15529;BME280;7866;52.280;9.500;2023-04-06T20:59:56;100347.69;;;7.44;53.98
15529;BME280;7866;52.280;9.500;2023-04-06T21:04:59;100341.91;;;7.48;54.17
15529;BME280;7866;52.280;9.500;2023-04-06T21:10:01;100348.25;;;7.37;55.22
15529;BME280;7866;52.280;9.500;2023-04-06T21:15:04;100349.97;;;7.38;54.31
15529;BME280;7866;52.280;9.500;2023-04-06T21:20:08;100346.75;;;7.35;54.39
15529;BME280;7866;52.280;9.500;2023-04-06T21:25:10;100343.38;;;7.05;55.96
15529;BME280;7866;52.280;9.500;2023-04-06T21:30:12;100330.41;;;6.93;56.85
15529;BME280;7866;52.280;9.500;2023-04-06T21:35:15;100334.34;;;6.88;57.02
15529;BME280;7866;52.280;9.500;2023-04-06T21:40:17;100335.75;;;6.83;56.95
15529;BME280;7866;52.280;9.500;2023-04-06T21:45:20;100337.16;;;6.77;56.96
15529;BME280;7866;52.280;9.500;2023-04-06T21:50:23;100333.84;;;6.65;57.42
15529;BME280;7866;52.280;9.500;2023-04-06T21:55:24;100336.41;;;6.38;58.60
15529;BME280;7866;52.280;9.500;2023-04-06T22:00:26;100337.78;;;6.42;59.59
15529;BME280;7866;52.280;9.500;2023-04-06T22:05:29;100329.69;;;6.44;58.29
15529;BME280;7866;52.280;9.500;2023-04-06T22:10:31;100333.22;;;6.34;58.67
15529;BME280;7866;52.280;9.500;2023-04-06T22:15:33;100329.44;;;6.17;59.51
15529;BME280;7866;52.280;9.500;2023-04-06T22:20:36;100319.50;;;6.00;60.40
15529;BME280;7866;52.280;9.500;2023-04-06T22:25:38;100331.00;;;6.10;60.67
15529;BME280;7866;52.280;9.500;2023-04-06T22:30:39;100326.91;;;6.06;59.47
15529;BME280;7866;52.280;9.500;2023-04-06T22:35:42;100338.97;;;6.10;58.74
15529;BME280;7866;52.280;9.500;2023-04-06T22:40:44;100326.09;;;5.96;59.69
15529;BME280;7866;52.280;9.500;2023-04-06T22:45:46;100335.84;;;5.66;60.32
15529;BME280;7866;52.280;9.500;2023-04-06T22:50:49;100340.69;;;5.52;62.20
15529;BME280;7866;52.280;9.500;2023-04-06T22:55:50;100343.31;;;5.42;63.57
15529;BME280;7866;52.280;9.500;2023-04-06T23:00:52;100335.13;;;5.64;61.55
15529;BME280;7866;52.280;9.500;2023-04-06T23:05:55;100330.50;;;5.57;60.96
15529;BME280;7866;52.280;9.500;2023-04-06T23:10:57;100346.13;;;5.50;61.12
15529;BME280;7866;52.280;9.500;2023-04-06T23:15:58;100341.31;;;5.25;62.46
15529;BME280;7866;52.280;9.500;2023-04-06T23:21:04;100340.25;;;5.06;63.84
15529;BME280;7866;52.280;9.500;2023-04-06T23:26:06;100340.41;;;5.05;64.07
15529;BME280;7866;52.280;9.500;2023-04-06T23:31:08;100347.03;;;5.20;62.73
15529;BME280;7866;52.280;9.500;2023-04-06T23:36:11;100343.06;;;5.05;62.53
15529;BME280;7866;52.280;9.500;2023-04-06T23:41:13;100341.88;;;4.88;64.09
15529;BME280;7866;52.280;9.500;2023-04-06T23:46:15;100345.00;;;4.72;64.53
15529;BME280;7866;52.280;9.500;2023-04-06T23:51:18;100345.50;;;4.66;65.02
15529;BME280;7866;52.280;9.500;2023-04-06T23:56:20;100340.88;;;4.89;63.63
